La Guadeloupe, Canada
Current Conditions -  °F | °C
As of 4:00 PM on Tuesday 27 Jan 2015 (Local Time) from CYSC Reporting Station
Light Snow Light Snow  
Wind Chill: -6°   Ceiling: 2600
Heat Index:   Visibility: 5mi
Dew Point:   Wind: 8mph
Humidity: 79%   Direction: 10°N
Pressure: 29.84"   Gusts: 23mph
Location:  45.97°N, 70.95°W
Report Text: CYSC 272100Z AUTO 01007G20KT 5SM -SN OVC026 M14/M17 A2984 RMK SLP126
Loading
Personal Weather Stations






























Interactive Weather Map New forecast layout! Learn more

10-Day Weather Forecast

Advertisements
Track Severe Weather on mobile